createdAt,value
2023-02-19T00:03:53.247Z,53.97
2023-02-19T00:08:56.081Z,54.47
2023-02-19T00:14:00.043Z,54.27
2023-02-19T00:19:04.892Z,54.13
2023-02-19T00:24:08.404Z,53.93
2023-02-19T00:29:16.024Z,53.81
2023-02-19T00:34:18.379Z,54.09
2023-02-19T00:39:21.639Z,54.17
2023-02-19T00:44:23.857Z,54.58
2023-02-19T00:49:25.998Z,54.52
2023-02-19T00:54:28.285Z,54.42
2023-02-19T00:59:30.716Z,54.32
2023-02-19T01:04:32.939Z,54.08
2023-02-19T01:09:35.190Z,53.91
2023-02-19T01:14:37.476Z,54.16
2023-02-19T01:19:39.657Z,54.36
2023-02-19T01:24:41.981Z,54.50
2023-02-19T01:29:44.183Z,54.26
2023-02-19T01:34:46.394Z,54.29
2023-02-19T01:39:48.649Z,53.89
2023-02-19T01:45:22.848Z,53.78
2023-02-19T01:50:28.364Z,54.23
2023-02-19T01:55:30.653Z,54.20
2023-02-19T02:00:34.549Z,54.28
2023-02-19T02:05:45.218Z,54.12
2023-02-19T02:10:47.334Z,53.95
2023-02-19T02:16:15.731Z,53.85
2023-02-19T02:21:53.565Z,53.81
2023-02-19T02:27:18.382Z,53.93
2023-02-19T02:32:25.347Z,53.99
2023-02-19T02:37:30.531Z,54.00
2023-02-19T02:42:35.340Z,53.92
2023-02-19T02:47:55.432Z,53.70
2023-02-19T02:53:26.989Z,53.55
2023-02-19T02:58:31.826Z,53.74
2023-02-19T03:03:39.002Z,53.99
2023-02-19T03:08:56.460Z,54.33
2023-02-19T03:14:27.962Z,54.09
2023-02-19T03:19:35.599Z,53.80
2023-02-19T03:25:15.618Z,53.79
2023-02-19T03:30:25.703Z,53.84
2023-02-19T03:35:35.274Z,53.79
2023-02-19T03:40:59.354Z,54.26
2023-02-19T03:46:12.052Z,54.44
2023-02-19T03:51:51.894Z,54.33
2023-02-19T03:57:06.217Z,54.22
2023-02-19T04:02:11.804Z,53.98
2023-02-19T04:07:14.553Z,54.09
2023-02-19T04:12:19.019Z,54.03
2023-02-19T04:17:32.591Z,53.96
2023-02-19T04:22:37.540Z,54.10
2023-02-19T04:27:40.224Z,54.03
2023-02-19T04:32:42.301Z,53.90
2023-02-19T04:37:44.490Z,53.87
2023-02-19T04:42:46.626Z,53.62
2023-02-19T04:47:48.745Z,54.02
2023-02-19T04:52:50.893Z,54.12
2023-02-19T04:57:52.997Z,54.15
2023-02-19T05:02:55.170Z,54.23
2023-02-19T05:07:57.389Z,53.98
2023-02-19T05:12:59.437Z,53.95
2023-02-19T05:18:01.527Z,53.79
2023-02-19T05:23:03.735Z,54.03
2023-02-19T05:28:18.134Z,54.27
2023-02-19T05:33:22.799Z,54.13
2023-02-19T05:38:25.685Z,54.10
2023-02-19T05:43:27.824Z,54.07
2023-02-19T05:48:30.119Z,53.57
2023-02-19T05:53:32.780Z,53.62
2023-02-19T05:58:34.857Z,53.63
2023-02-19T06:03:37.020Z,53.82
2023-02-19T06:08:39.192Z,54.07
2023-02-19T06:13:41.326Z,53.99
2023-02-19T06:18:44.202Z,53.86
2023-02-19T06:23:47.213Z,53.58
2023-02-19T06:28:51.394Z,53.71
2023-02-19T06:33:55.212Z,53.79
2023-02-19T06:39:00.760Z,54.11
2023-02-19T06:44:02.818Z,54.26
2023-02-19T06:49:05.770Z,54.41
2023-02-19T06:54:07.919Z,54.20
2023-02-19T06:59:19.313Z,53.86
2023-02-19T07:04:21.445Z,53.89
2023-02-19T07:09:25.553Z,53.87
2023-02-19T07:14:27.456Z,53.87
2023-02-19T07:19:29.578Z,53.98
2023-02-19T07:24:31.702Z,53.88
2023-02-19T07:29:33.794Z,53.77
2023-02-19T07:34:35.900Z,53.68
2023-02-19T07:39:38.009Z,53.76
2023-02-19T07:44:40.087Z,53.57
2023-02-19T07:49:42.144Z,53.88
2023-02-19T07:54:44.284Z,54.06
2023-02-19T07:59:46.509Z,54.02
2023-02-19T08:04:48.734Z,53.95
2023-02-19T08:10:10.713Z,53.61
2023-02-19T08:15:12.798Z,53.83
2023-02-19T08:20:14.976Z,53.71
2023-02-19T08:25:17.193Z,53.92
2023-02-19T08:30:19.486Z,53.96
2023-02-19T08:35:22.178Z,54.07
2023-02-19T08:40:25.590Z,53.52
2023-02-19T08:45:27.774Z,53.49
2023-02-19T08:50:30.012Z,53.35
2023-02-19T08:55:32.536Z,53.43
2023-02-19T09:00:34.797Z,53.74
2023-02-19T09:05:38.266Z,53.65
2023-02-19T09:10:40.461Z,53.84
2023-02-19T09:15:42.554Z,53.46
2023-02-19T09:20:44.592Z,53.50
2023-02-19T09:25:47.010Z,53.32
2023-02-19T09:30:49.070Z,53.36
2023-02-19T09:35:51.252Z,53.66
2023-02-19T09:40:53.520Z,53.96
2023-02-19T09:46:03.883Z,53.84
2023-02-19T09:51:11.024Z,53.91
2023-02-19T09:56:13.283Z,53.54
2023-02-19T10:01:15.952Z,53.13
2023-02-19T10:06:26.828Z,53.08
2023-02-19T10:11:29.192Z,53.48
2023-02-19T10:16:31.721Z,53.83
2023-02-19T10:21:33.865Z,53.65
2023-02-19T10:26:37.007Z,53.63
2023-02-19T10:31:39.185Z,53.40
2023-02-19T10:36:43.068Z,53.29
2023-02-19T10:41:45.276Z,53.17
2023-02-19T10:46:50.546Z,53.55
2023-02-19T10:51:55.724Z,53.82
2023-02-19T10:57:40.766Z,53.65
2023-02-19T11:02:44.918Z,53.49
2023-02-19T11:07:54.996Z,53.48
2023-02-19T11:13:00.496Z,53.43
2023-02-19T11:18:08.519Z,53.45
2023-02-19T11:23:17.998Z,53.28
2023-02-19T11:28:40.675Z,53.47
2023-02-19T11:33:54.736Z,53.56
2023-02-19T11:38:59.211Z,53.83
2023-02-19T11:44:34.256Z,53.76
2023-02-19T11:49:54.516Z,54.23
2023-02-19T11:55:05.875Z,54.59
2023-02-19T12:00:19.793Z,54.43
2023-02-19T12:05:37.604Z,55.02
2023-02-19T12:10:59.757Z,55.14
2023-02-19T12:16:30.009Z,55.61
2023-02-19T12:21:43.952Z,55.72
2023-02-19T12:27:07.567Z,55.94
2023-02-19T12:32:29.077Z,55.78
2023-02-19T12:38:00.611Z,56.13
2023-02-19T12:43:11.503Z,56.27
2023-02-19T12:48:24.577Z,56.86
2023-02-19T12:53:48.872Z,57.56
2023-02-19T12:59:12.783Z,57.85
2023-02-19T13:04:18.564Z,58.22
2023-02-19T13:09:51.578Z,58.66
2023-02-19T13:15:24.561Z,58.66
2023-02-19T13:20:32.209Z,58.62
2023-02-19T13:26:09.574Z,58.99
2023-02-19T13:31:39.981Z,59.29
2023-02-19T13:36:42.454Z,59.70
2023-02-19T13:41:53.750Z,60.03
2023-02-19T13:46:56.280Z,60.03
2023-02-19T13:52:22.524Z,60.25
2023-02-19T13:57:27.094Z,60.58
2023-02-19T14:02:35.333Z,61.02
2023-02-19T14:07:50.365Z,61.58
2023-02-19T14:12:52.455Z,61.67
2023-02-19T14:17:55.448Z,62.06
2023-02-19T14:23:08.904Z,61.86
2023-02-19T14:28:11.537Z,61.66
2023-02-19T14:33:16.756Z,61.49
2023-02-19T14:38:24.608Z,61.91
2023-02-19T14:43:27.939Z,62.08
2023-02-19T14:48:39.288Z,62.42
2023-02-19T14:53:45.082Z,62.42
2023-02-19T14:59:05.341Z,62.07
2023-02-19T15:04:21.343Z,62.15
2023-02-19T15:09:32.138Z,62.30
2023-02-19T15:14:34.920Z,62.22
2023-02-19T15:19:39.787Z,62.56
2023-02-19T15:24:48.408Z,61.99
2023-02-19T15:29:53.687Z,61.61
2023-02-19T15:34:58.607Z,61.53
2023-02-19T15:40:05.680Z,61.34
2023-02-19T15:45:20.164Z,61.42
2023-02-19T15:50:34.589Z,61.57
2023-02-19T15:55:57.853Z,61.39
2023-02-19T16:01:08.438Z,61.35
2023-02-19T16:06:16.248Z,61.24
2023-02-19T16:11:24.067Z,61.41
2023-02-19T16:16:31.024Z,61.11
2023-02-19T16:21:33.351Z,61.33
2023-02-19T16:26:42.743Z,61.57
2023-02-19T16:31:53.645Z,61.24
2023-02-19T16:36:55.826Z,61.15
2023-02-19T16:42:02.243Z,61.33
2023-02-19T16:47:16.697Z,60.74
2023-02-19T16:52:18.866Z,60.92
2023-02-19T16:57:21.180Z,61.07
2023-02-19T17:02:24.971Z,60.80
2023-02-19T17:07:27.887Z,60.58
2023-02-19T17:12:30.452Z,60.54
2023-02-19T17:17:32.677Z,60.08
2023-02-19T17:22:34.870Z,59.64
2023-02-19T17:27:37.029Z,59.36
2023-02-19T17:32:39.195Z,59.38
2023-02-19T17:37:41.381Z,59.09
2023-02-19T17:42:43.680Z,58.97
2023-02-19T17:47:45.868Z,58.71
2023-02-19T17:52:48.505Z,58.29
2023-02-19T17:57:52.232Z,57.96
2023-02-19T18:02:54.804Z,57.74
2023-02-19T18:07:56.836Z,57.87
2023-02-19T18:12:58.894Z,57.75
2023-02-19T18:18:01.065Z,57.64
2023-02-19T18:23:03.202Z,57.36
2023-02-19T18:28:05.514Z,57.41
2023-02-19T18:33:07.864Z,56.88
2023-02-19T18:38:09.897Z,57.04
2023-02-19T18:43:11.971Z,57.25
2023-02-19T18:48:14.099Z,57.17
2023-02-19T18:53:16.169Z,57.14
2023-02-19T18:58:19.922Z,57.12
2023-02-19T19:03:21.985Z,56.82
2023-02-19T19:08:24.171Z,56.50
2023-02-19T19:13:26.224Z,56.72
2023-02-19T19:18:28.307Z,56.67
2023-02-19T19:23:30.733Z,56.84
2023-02-19T19:28:33.148Z,56.77
2023-02-19T19:33:35.262Z,56.71
2023-02-19T19:38:38.149Z,56.68
2023-02-19T19:43:40.354Z,56.31
2023-02-19T19:48:42.425Z,56.26
2023-02-19T19:53:48.265Z,56.39
2023-02-19T19:58:50.310Z,56.62
2023-02-19T20:03:52.656Z,56.58
2023-02-19T20:08:55.058Z,56.74
2023-02-19T20:13:57.205Z,56.47
2023-02-19T20:18:59.295Z,56.32
2023-02-19T20:24:01.511Z,56.09
2023-02-19T20:29:06.247Z,56.03
2023-02-19T20:34:08.393Z,56.28
2023-02-19T20:39:10.662Z,56.26
2023-02-19T20:44:13.392Z,56.12
2023-02-19T20:49:17.102Z,56.21
2023-02-19T20:54:20.605Z,56.04
2023-02-19T20:59:27.439Z,55.82
2023-02-19T21:04:29.600Z,55.64
2023-02-19T21:09:32.337Z,55.88
2023-02-19T21:14:34.445Z,55.86
2023-02-19T21:19:36.563Z,55.89
2023-02-19T21:24:38.692Z,55.92
2023-02-19T21:29:40.742Z,55.77
2023-02-19T21:34:43.263Z,55.56
2023-02-19T21:39:45.540Z,55.37
2023-02-19T21:44:47.842Z,55.82
2023-02-19T21:49:49.876Z,55.75
2023-02-19T21:54:52.018Z,55.93
2023-02-19T21:59:54.595Z,55.59
2023-02-19T22:04:57.876Z,55.61
2023-02-19T22:10:00.023Z,55.20
2023-02-19T22:15:02.131Z,55.38
2023-02-19T22:20:05.023Z,55.51
2023-02-19T22:25:07.373Z,55.48
2023-02-19T22:30:09.950Z,55.42
2023-02-19T22:35:13.332Z,55.18
2023-02-19T22:40:17.041Z,55.37
2023-02-19T22:45:19.173Z,55.20
2023-02-19T22:50:22.766Z,55.39
2023-02-19T22:55:24.853Z,55.49
2023-02-19T23:00:27.014Z,55.59
2023-02-19T23:05:29.110Z,55.60
2023-02-19T23:10:31.193Z,55.64
2023-02-19T23:15:33.343Z,55.49
2023-02-19T23:20:35.844Z,55.51
2023-02-19T23:25:37.951Z,55.41
2023-02-19T23:30:40.241Z,55.08
2023-02-19T23:35:42.417Z,55.48
2023-02-19T23:40:45.480Z,55.52
2023-02-19T23:45:47.829Z,55.39
2023-02-19T23:50:50.074Z,55.10
2023-02-19T23:55:52.456Z,55.12
